• Join FlightAware (Why Join?)
  • Login
  • US Flag 
03:12AM EST


 

Airport Tracker/Info


-or-


 

Live Flight TrackerFlight Track Log ✈ N555FW ✈ 28-Jun-2013 ✈ KELP - KFTW

Flight Track Log - Related Links

Times and Time Zones

All times are in EDT time to prevent confusion due to time zone crossing. See the N555FW flight status page for this flight to view local times or setup timezone preferences in your user account.

Time Position Orientation Groundspeed Altitude Reporting Facility
EDT Latitude Longitude Course Direction KTS MPH feet Rate Location/Type
02:41PM 31.8006 -106.3583 87° East 131 151 4,400  Level Albuquerque Center
02:42PM 31.8042 -106.2847 87° East 164 189 6,800 1,680 Climbing Albuquerque Center
02:43PM 31.8103 -106.2358 82° East 153 176 8,500 1,500 Climbing Albuquerque Center
02:45PM 31.8203 -106.1731 79° East 146 168 10,500 1,440 Climbing Albuquerque Center
02:46PM 31.8275 -106.1247 80° East 149 171 12,100 1,440 Climbing Albuquerque Center
02:47PM 31.8342 -106.0767 81° East 150 173 13,500 1,440 Climbing Albuquerque Center
02:48PM 31.8433 -106.0169 80° East 154 177 15,100 1,380 Climbing Albuquerque Center
02:49PM 31.8514 -105.9664 79° East 157 181 16,400 1,080 Climbing Albuquerque Center
02:50PM 31.8583 -105.9131 81° East 165 190 17,400 960 Climbing Albuquerque Center
02:51PM 31.8669 -105.8578 80° East 170 196 18,500 960 Climbing Albuquerque Center
02:52PM 31.8744 -105.8019 81° East 173 199 19,400 960 Climbing Albuquerque Center
02:53PM 31.8831 -105.7433 80° East 180 207 20,500 1,020 Climbing Albuquerque Center
02:54PM 31.8942 -105.6719 80° East 185 213 21,600 960 Climbing Albuquerque Center
02:55PM 31.9025 -105.6133 80° East 183 211 22,600 660 Climbing Albuquerque Center
02:56PM 31.9111 -105.5528 80° East 189 217 23,000 180 Climbing Albuquerque Center
02:57PM 31.9206 -105.4822 81° East 218 251 23,000  Level Albuquerque Center
02:58PM 31.9319 -105.4069 80° East 233 268 23,000  Level Albuquerque Center
02:59PM 31.9431 -105.3289 80° East 242 278 23,000  Level Albuquerque Center
03:00PM 31.9553 -105.2503 80° East 244 281 23,000  Level Albuquerque Center
03:01PM 31.9689 -105.1550 80° East 245 282 23,000  Level Albuquerque Center
03:02PM 31.9797 -105.0750 81° East 246 283 23,000  Level Albuquerque Center
03:03PM 31.9908 -104.9983 80° East 242 278 23,000  Level Albuquerque Center
03:04PM 32.0011 -104.9225 81° East 237 273 23,000  Level Albuquerque Center
03:05PM 32.0125 -104.8461 80° East 237 273 23,000  Level Albuquerque Center
03:06PM 32.0233 -104.7697 80° East 236 272 23,000  Level Albuquerque Center
03:07PM 32.0333 -104.6919 81° East 239 275 23,000  Level Albuquerque Center
03:08PM 32.0461 -104.5969 81° East 243 280 23,000  Level Albuquerque Center
03:09PM 32.0572 -104.5203 80° East 240 276 23,000  Level Albuquerque Center
03:11PM 32.0681 -104.4417 81° East 241 277 23,000  Level Albuquerque Center
03:12PM 32.0783 -104.3650 81° East 238 274 23,000  Level Albuquerque Center
03:13PM 32.0881 -104.2878 82° East 239 275 23,000  Level Albuquerque Center
03:14PM 32.0992 -104.2103 80° East 239 275 23,000  Level Albuquerque Center
03:15PM 32.1081 -104.1328 82° East 240 276 23,000  Level Albuquerque Center
03:16PM 32.1214 -104.0472 80° East 236 272 23,000  Level Albuquerque Center
03:17PM 32.1300 -103.9700 82° East 237 273 23,000  Level Albuquerque Center
03:18PM 32.1403 -103.8933 81° East 238 274 23,000  Level Albuquerque Center
03:19PM 32.1494 -103.8164 82° East 238 274 23,000  Level Albuquerque Center
03:20PM 32.1544 -103.7247 86° East 235 270 23,000  Level Albuquerque Center
03:21PM 32.1592 -103.6486 86° East 233 268 23,000  Level Albuquerque Center
03:22PM 32.1611 -103.5700 88° East 238 274 23,000  Level Albuquerque Center
03:23PM 32.1636 -103.4942 88° East 234 269 23,000  Level Albuquerque Center
03:24PM 32.1661 -103.4175 88° East 234 269 23,000  Level Albuquerque Center
03:25PM 32.1692 -103.3408 87° East 235 270 23,000  Level Albuquerque Center
03:26PM 32.1717 -103.2492 88° East 234 269 23,000  Level Albuquerque Center
03:27PM 32.1733 -103.1725 89° East 234 269 23,000  Level Albuquerque Center
03:28PM 32.1764 -103.0964 87° East 234 269 23,000  Level Albuquerque Center
03:30PM 32.1800 -102.9700 88° East 233 268 23,000  Level Fort Worth Center
03:31PM 32.1833 -102.8967 87° East 233 268 23,000  Level Fort Worth Center
03:32PM 32.1844 -102.8206 89° East 233 268 23,000  Level Fort Worth Center
03:33PM 32.1856 -102.7469 89° East 233 268 23,000  Level Fort Worth Center
03:34PM 32.1886 -102.6783 87° East 233 268 23,000  Level Fort Worth Center
03:35PM 32.1894 -102.6025 89° East 233 268 23,000  Level Fort Worth Center
03:36PM 32.1906 -102.5264 89° East 233 268 23,000  Level Fort Worth Center
03:37PM 32.1936 -102.4531 87° East 233 268 23,000  Level Fort Worth Center
03:38PM 32.1939 -102.3892 90° East 233 268 23,000  Level Fort Worth Center
03:39PM 32.1975 -102.2986 87° East 233 268 23,000  Level Fort Worth Center
03:40PM 32.2006 -102.2250 87° East 233 268 23,000  Level Fort Worth Center
03:41PM 32.2011 -102.1492 89° East 233 268 23,000  Level Fort Worth Center
03:42PM 32.2042 -102.0731 87° East 233 268 23,000  Level Fort Worth Center
03:43PM 32.2047 -101.9994 89° East 233 268 23,000  Level Fort Worth Center
03:44PM 32.2072 -101.9258 88° East 233 268 23,000  Level Fort Worth Center
03:45PM 32.2081 -101.8500 89° East 233 268 23,000  Level Fort Worth Center
03:46PM 32.2106 -101.7739 88° East 233 268 23,000  Level Fort Worth Center
03:47PM 32.2092 -101.6978 91° East 233 268 23,000  Level Fort Worth Center
03:48PM 32.2117 -101.6242 88° East 233 268 23,000  Level Fort Worth Center
03:49PM 32.2139 -101.5506 88° East 233 268 23,000  Level Fort Worth Center
03:50PM 32.2164 -101.4747 88° East 228 262 23,000  Level Fort Worth Center
03:51PM 32.2147 -101.4033 92° East 228 262 23,000  Level Fort Worth Center
03:52PM 32.2169 -101.3275 88° East 228 262 23,000  Level Fort Worth Center
03:53PM 32.2214 -101.2539 86° East 228 262 23,000  Level Fort Worth Center
03:54PM 32.2297 -101.1806 82° East 228 262 23,000 -300 Level Fort Worth Center
03:55PM 32.2342 -101.1072 86° East 228 262 22,400 -900 Descending Fort Worth Center
03:56PM 32.2408 -101.0189 85° East 240 276 21,200 -1,200 Descending Fort Worth Center
03:57PM 32.2497 -100.9308 83° East 259 298 20,100 -1,080 Descending Fort Worth Center
03:58PM 32.2583 -100.8403 84° East 264 304 19,100 -600 Descending Fort Worth Center
03:59PM 32.2628 -100.7544 86° East 269 310 19,000 -60 Descending Fort Worth Center
04:00PM 32.2711 -100.6761 83° East 256 295 19,000  Level Fort Worth Center
04:01PM 32.2753 -100.5978 86° East 244 281 19,000  Level Fort Worth Center
04:02PM 32.2814 -100.5194 85° East 238 274 19,000  Level Fort Worth Center
04:03PM 32.2872 -100.4433 85° East 232 267 19,000  Level Fort Worth Center
04:04PM 32.2933 -100.3625 85° East 232 267 19,000  Level Fort Worth Center
04:05PM 32.2994 -100.2864 85° East 232 267 19,000  Level Fort Worth Center
04:06PM 32.3053 -100.2056 85° East 237 273 19,000  Level Fort Worth Center
04:07PM 32.3117 -100.1125 85° East 237 273 19,000  Level Fort Worth Center
04:08PM 32.3175 -100.0364 85° East 237 273 19,000  Level Fort Worth Center
04:09PM 32.3233 -99.9553 85° East 237 273 19,000  Level Fort Worth Center
04:10PM 32.3289 -99.8794 85° East 237 273 19,000  Level Fort Worth Center
04:11PM 32.3347 -99.7983 85° East 237 273 19,000  Level Fort Worth Center
04:13PM 32.3458 -99.6436 85° East 237 273 19,000  Level Fort Worth Center
04:14PM 32.3514 -99.5653 85° East 237 273 19,000  Level Fort Worth Center
04:15PM 32.3567 -99.4964 85° East 237 273 19,000  Level Fort Worth Center
04:16PM 32.3625 -99.4031 86° East 237 273 19,000  Level Fort Worth Center
04:17PM 32.3678 -99.3269 85° East 237 273 19,000  Level Fort Worth Center
04:18PM 32.3731 -99.2483 85° East 237 273 19,000  Level Fort Worth Center
04:19PM 32.3783 -99.1697 85° East 237 273 19,000  Level Fort Worth Center
04:20PM 32.3836 -99.0936 85° East 237 273 19,000  Level Fort Worth Center
04:21PM 32.3889 -99.0150 85° East 237 273 19,000 -60 Level Fort Worth Center
04:22PM 32.3961 -98.9439 83° East 237 273 18,900 -480 Descending Fort Worth Center
04:23PM 32.3989 -98.8700 87° East 237 273 18,100 -900 Descending Fort Worth Center
04:24PM 32.4042 -98.7742 86° East 253 291 17,200 -1,020 Descending Fort Worth Center
04:25PM 32.4114 -98.6783 85° East 258 297 16,100 -1,080 Descending Fort Worth Center
04:26PM 32.4208 -98.5897 83° East 258 297 15,100 -1,020 Descending Fort Worth Center
04:27PM 32.4236 -98.5011 88° East 264 304 14,100 -1,140 Descending Fort Worth Center
04:28PM 32.4286 -98.4053 86° East 279 321 12,900 -1,080 Descending Fort Worth Center
04:29PM 32.4356 -98.3192 85° East 273 314 12,000 -1,020 Descending Fort Worth Center
04:30PM 32.4403 -98.2306 86° East 273 314 10,900 -1,020 Descending Fort Worth Center
04:31PM 32.4450 -98.1419 86° East 273 314 10,000 -1,080 Descending Fort Worth Center
04:32PM 32.4517 -98.0536 85° East 273 314 8,800 -1,200 Descending Fort Worth Center
04:33PM 32.4542 -97.9650 88° East 273 314 7,700 -1,200 Descending Fort Worth Center
04:34PM 32.4608 -97.8764 85° East 273 314 6,400 -1,200 Descending Fort Worth Center
04:35PM 32.4653 -97.7925 86° East 268 308 5,300 -660 Descending Fort Worth Center
04:36PM 32.4739 -97.7211 82° East 256 295 5,100 -120 Descending Fort Worth Center
04:37PM 32.5219 -97.6597 47° Northeast 222 255 5,100  Level Fort Worth Center
04:38PM 32.5619 -97.6081 47° Northeast 216 249 5,100 -300 Level Fort Worth Center
04:39PM 32.6017 -97.5514 50° Northeast 216 249 4,500 -540 Descending Fort Worth Center
04:40PM 32.6497 -97.5047 39° Northeast 216 249 4,100 -420 Descending Fort Worth Center
04:41PM 32.6894 -97.4628 42° Northeast 210 242 3,700 -840 Descending Fort Worth Center
04:42PM 32.7331 -97.4133 44° Northeast 205 236 2,500 -960 Descending Fort Worth Center
04:43PM 32.7603 -97.3739 51° Northeast 182 209 1,800 -600 Descending Fort Worth Center
04:44PM 32.7958 -97.3417 37° Northeast 147 169 1,300 1,560 Descending Fort Worth Center
04:45PM 32.7769 -97.4133 253° West 99 114 5,000 1,800 Climbing Fort Worth Center
04:46PM 32.7769 -97.4108 90° East 57 66 5,000  Level Fort Worth Center
04:47PM 32.7769 -97.4133 270° West 45 52 5,000  Level Fort Worth Center
04:48PM 32.7769 -97.4133 328° Northwest 10 12 5,000  Level Fort Worth Center
04:50PM 32.8167 -97.3500 40° Northeast  Level FlightAware Approximate
04:57PM 32.8198 -97.3624 40° Northeast  Level Estimated
04:58PM 32.8198 -97.3624 40° Northeast  Level Estimated
04:59PM 32.8198 -97.3624 40° Northeast  Level Estimated